WetterOnline ( http://www.wetteronline.de )

Wetter aktuell Magdeburg

Aktuelles Wetter: Magdeburg (85m)

6-stündlich | Neueste Meldungen
Ortszeit Temperatur Wetter
Di, 23.01. 1:00 2.3° C bedeckt
Mo, 22.01. 19:00 0.8° C Sprühregen
Mo, 22.01. 13:00 1.3° C leichter Schneefall
Mo, 22.01. 7:00 -0.0° C bedeckt
Mo, 22.01. 1:00 -0.5° C Nebel
So, 21.01. 19:00 -0.4° C bedeckt
So, 21.01. 13:00 0.3° C bedeckt
So, 21.01. 7:00 -0.2° C bedeckt
Ortszeit Temperatur Wetter
Di, 23.01. 6:30 2.8° C Regen
Di, 23.01. 6:20 2.8° C Regen
Di, 23.01. 6:10 2.7° C Sprühregen
Di, 23.01. 6:00 2.5° C Sprühregen
Di, 23.01. 5:50 2.5° C Sprühregen
Di, 23.01. 5:40 2.6° C bedeckt
Di, 23.01. 5:30 2.5° C Sprühregen
Di, 23.01. 5:00 2.4° C leichter Regen
Di, 23.01. 4:30 2.5° C bewölkt
Di, 23.01. 4:00 2.4° C Sprühregen
Di, 23.01. 3:30 2.4° C Sprühregen
Ortszeit Relative Feuchte Sichtweite
Di, 23.01. 1:00 99% 2.8 km
Mo, 22.01. 19:00 99% 2.2 km
Mo, 22.01. 13:00 90% 9 km
Mo, 22.01. 7:00 93% 5.0 km
Mo, 22.01. 1:00 100% 0.3 km
So, 21.01. 19:00 100% 1.1 km
So, 21.01. 13:00 99% 2.0 km
So, 21.01. 7:00 97% 4.9 km
Ortszeit Relative Feuchte Sichtweite
Di, 23.01. 6:30 100% 1.5 km
Di, 23.01. 6:20 100% -
Di, 23.01. 6:10 100% -
Di, 23.01. 6:00 100% 2.8 km
Di, 23.01. 5:50 100% -
Di, 23.01. 5:40 100% -
Di, 23.01. 5:30 100% 2.1 km
Di, 23.01. 5:00 100% 1.6 km
Di, 23.01. 4:30 100% 2.4 km
Di, 23.01. 4:00 100% 2.3 km
Di, 23.01. 3:30 100% 1.9 km
Ortszeit Niederschlagsmenge Niederschlagsart
Di, 23.01. 1:00 1 l/m2 in 6 Std. Regen
Mo, 22.01. 19:00 1 l/m2 in 12 Std. Schnee, Regen
Mo, 22.01. 13:00 0.1 l/m2 in 6 Std. Schnee, Sprühregen
Mo, 22.01. 7:00 0.0 l/m2 in 12 Std. -
Mo, 22.01. 1:00 0.0 l/m2 in 6 Std. -
So, 21.01. 19:00 0.0 l/m2 in 12 Std. -
So, 21.01. 13:00 0.0 l/m2 in 6 Std. -
So, 21.01. 7:00 0.0 l/m2 in 12 Std. -
Ortszeit Niederschlagsmenge Niederschlagsart
Di, 23.01. 6:30 0.3 l/m2 in 1 Std. -
Di, 23.01. 6:20 keine Meldung -
Di, 23.01. 6:10 keine Meldung -
Di, 23.01. 6:00 0.1 l/m2 in 1 Std. Regen
Di, 23.01. 5:50 keine Meldung -
Di, 23.01. 5:40 keine Meldung -
Di, 23.01. 5:30 0.1 l/m2 in 1 Std. -
Di, 23.01. 5:00 0.8 l/m2 in 1 Std. Regen
Di, 23.01. 4:30 0.4 l/m2 in 1 Std. Schneeregen
Di, 23.01. 4:00 1.1 l/m2 in 1 Std. Regen
Di, 23.01. 3:30 0.1 l/m2 in 1 Std. -
Ortszeit Stärke Spitze Richtung
km/h Bft. km/h Grad Sektor
Di, 23.01. 1:00 4 1 11 340° N
Mo, 22.01. 19:00 4 1 29 160° S
Mo, 22.01. 13:00 15 3 35 150° SO
Mo, 22.01. 7:00 13 3 24 140° SO
Mo, 22.01. 1:00 11 2 22 140° SO
So, 21.01. 19:00 0 0 14 - -
So, 21.01. 13:00 4 1 11 340° N
So, 21.01. 7:00 7 2 11 350° N
Ortszeit Stärke Spitze Richtung
km/h Bft. km/h Grad Sektor
Di, 23.01. 6:30 0 0 7 - -
Di, 23.01. 6:20 2 1 - 170° S
Di, 23.01. 6:10 4 1 - 200° S
Di, 23.01. 6:00 4 1 7 210° SW
Di, 23.01. 5:50 4 1 - 210° SW
Di, 23.01. 5:40 2 1 - 180° S
Di, 23.01. 5:30 4 1 7 170° S
Di, 23.01. 5:00 4 1 4 180° S
Di, 23.01. 4:30 2 1 4 100° O
Di, 23.01. 4:00 2 1 11 330° NW
Di, 23.01. 3:30 4 1 11 350° N
Ortszeit Untergrenze Bedeckung Gattung
total tief tief mittel hoch
Di, 23.01. 1:00 120 m 8/8 8/8 - - -
Mo, 22.01. 19:00 30 m 8/8 8/8 - - -
Mo, 22.01. 13:00 240 m 7/8 7/8 - - -
Mo, 22.01. 7:00 180 m 8/8 8/8 - - -
Mo, 22.01. 1:00 <30 m 8/8 8/8 - - -
So, 21.01. 19:00 <30 m 8/8 8/8 - - -
So, 21.01. 13:00 <30 m 8/8 8/8 - - -
So, 21.01. 7:00 1500 m 8/8 8/8 - - -
Ortszeit Bedeckungsgrad in Achtel und Wolkenuntergrenze
Di, 23.01. 6:30 5(30m) 7(300m)
Di, 23.01. 6:20 5(30m) 7(300m)
Di, 23.01. 6:10 5(30m) 7(300m) 8(660m)
Di, 23.01. 6:00 1(30m) 7(330m) 8(720m)
Di, 23.01. 5:50 1(30m) 7(330m) 8(720m)
Di, 23.01. 5:40 1(30m) 7(210m) 8(330m)
Di, 23.01. 5:30 4(30m) 7(210m) 8(450m)
Di, 23.01. 5:00 3(30m) 7(510m) 8(660m)
Di, 23.01. 4:30 3(30m) 7(510m) 7(720m)
Di, 23.01. 4:00 3(30m) 7(300m) 7(570m)
Di, 23.01. 3:30 7(30m) 7(180m) 7(900m)
Ortszeit Luftdruck NN (hPa) Tendenz (hPa in 3 Std.)
Di, 23.01. 1:00 1015 + 2,8
Mo, 22.01. 19:00 1010 + 1,9
Mo, 22.01. 13:00 1008 - 2,3
Mo, 22.01. 7:00 1011 - 1,9
Mo, 22.01. 1:00 1016 - 1,8
So, 21.01. 19:00 1018 + 0,8
So, 21.01. 13:00 1015 + 2,7
So, 21.01. 7:00 1009 + 3,1
Ortszeit Luftdruck NN (hPa) Tendenz (hPa in 3 Std.)
Di, 23.01. 6:30 1019 + 2,2
Di, 23.01. 6:20 1019 keine Meldung
Di, 23.01. 6:10 1019 keine Meldung
Di, 23.01. 6:00 1019 + 2,3
Di, 23.01. 5:50 1019 keine Meldung
Di, 23.01. 5:40 1019 keine Meldung
Di, 23.01. 5:30 1018 + 2,3
Di, 23.01. 5:00 1018 + 2,3
Di, 23.01. 4:30 1018 + 2,3
Di, 23.01. 4:00 1017 + 2,6
Di, 23.01. 3:30 1017 + 2,5
Ortszeit Schneehöhe (cm)
Di, 23.01. 1:00 0
Mo, 22.01. 19:00 0
Mo, 22.01. 13:00 0
Mo, 22.01. 7:00 0
Mo, 22.01. 1:00 0
So, 21.01. 19:00 0
So, 21.01. 13:00 0
So, 21.01. 7:00 0
Ortszeit Schneehöhe (cm)
Di, 23.01. 6:30 0
Di, 23.01. 6:20 0
Di, 23.01. 6:10 0
Di, 23.01. 6:00 0
Di, 23.01. 5:50 0
Di, 23.01. 5:40 0
Di, 23.01. 5:30 0
Di, 23.01. 5:00 0
Di, 23.01. 4:30 0
Di, 23.01. 4:00 0
Di, 23.01. 3:30 0
Link zu dieser Seite / Seite empfehlen

Das Wetter in ...